sensor_id;sensor_type;location;lat;lon;timestamp;P1;durP1;ratioP1;P2;durP2;ratioP2
35418;SDS011;21525;41.240;16.500;2023-12-04T00:01:18;9.55;;;4.32;;
35418;SDS011;21525;41.240;16.500;2023-12-04T00:03:44;7.07;;;4.00;;
35418;SDS011;21525;41.240;16.500;2023-12-04T00:06:10;10.68;;;3.88;;
35418;SDS011;21525;41.240;16.500;2023-12-04T00:08:37;9.18;;;4.13;;
35418;SDS011;21525;41.240;16.500;2023-12-04T00:11:06;12.30;;;4.60;;
35418;SDS011;21525;41.240;16.500;2023-12-04T00:13:32;10.40;;;4.25;;
35418;SDS011;21525;41.240;16.500;2023-12-04T00:15:58;9.50;;;4.35;;
35418;SDS011;21525;41.240;16.500;2023-12-04T00:18:24;9.93;;;4.53;;
35418;SDS011;21525;41.240;16.500;2023-12-04T00:20:50;9.55;;;4.43;;
35418;SDS011;21525;41.240;16.500;2023-12-04T00:23:16;8.73;;;4.13;;
35418;SDS011;21525;41.240;16.500;2023-12-04T00:25:42;10.25;;;4.10;;
35418;SDS011;21525;41.240;16.500;2023-12-04T00:28:08;10.13;;;4.47;;
35418;SDS011;21525;41.240;16.500;2023-12-04T00:30:34;7.93;;;4.32;;
35418;SDS011;21525;41.240;16.500;2023-12-04T00:32:59;11.68;;;4.57;;
35418;SDS011;21525;41.240;16.500;2023-12-04T00:35:25;8.15;;;4.13;;
35418;SDS011;21525;41.240;16.500;2023-12-04T00:37:51;10.82;;;4.65;;
35418;SDS011;21525;41.240;16.500;2023-12-04T00:40:17;13.73;;;4.55;;
35418;SDS011;21525;41.240;16.500;2023-12-04T00:42:42;10.00;;;4.88;;
35418;SDS011;21525;41.240;16.500;2023-12-04T00:45:08;10.90;;;4.72;;
35418;SDS011;21525;41.240;16.500;2023-12-04T00:47:34;10.52;;;4.93;;
35418;SDS011;21525;41.240;16.500;2023-12-04T00:50:00;11.50;;;5.25;;
35418;SDS011;21525;41.240;16.500;2023-12-04T00:52:26;10.77;;;5.43;;
35418;SDS011;21525;41.240;16.500;2023-12-04T00:54:51;12.30;;;5.93;;
35418;SDS011;21525;41.240;16.500;2023-12-04T00:57:17;8.48;;;5.20;;
35418;SDS011;21525;41.240;16.500;2023-12-04T00:59:43;10.57;;;5.13;;
35418;SDS011;21525;41.240;16.500;2023-12-04T01:02:08;12.75;;;6.10;;
35418;SDS011;21525;41.240;16.500;2023-12-04T01:04:34;12.75;;;6.07;;
35418;SDS011;21525;41.240;16.500;2023-12-04T01:07:01;13.63;;;6.32;;
35418;SDS011;21525;41.240;16.500;2023-12-04T01:09:27;12.48;;;6.65;;
35418;SDS011;21525;41.240;16.500;2023-12-04T01:11:53;13.93;;;7.00;;
35418;SDS011;21525;41.240;16.500;2023-12-04T01:14:19;12.25;;;6.57;;
35418;SDS011;21525;41.240;16.500;2023-12-04T01:16:46;11.50;;;6.40;;
35418;SDS011;21525;41.240;16.500;2023-12-04T01:19:12;13.23;;;7.15;;
35418;SDS011;21525;41.240;16.500;2023-12-04T01:21:38;12.38;;;6.78;;
35418;SDS011;21525;41.240;16.500;2023-12-04T01:24:04;13.70;;;6.78;;
35418;SDS011;21525;41.240;16.500;2023-12-04T01:26:30;18.13;;;7.60;;
35418;SDS011;21525;41.240;16.500;2023-12-04T01:28:56;11.70;;;6.78;;
35418;SDS011;21525;41.240;16.500;2023-12-04T01:31:21;14.50;;;6.85;;
35418;SDS011;21525;41.240;16.500;2023-12-04T01:33:47;15.63;;;7.13;;
35418;SDS011;21525;41.240;16.500;2023-12-04T01:36:13;12.82;;;6.95;;
35418;SDS011;21525;41.240;16.500;2023-12-04T01:38:39;12.98;;;6.28;;
35418;SDS011;21525;41.240;16.500;2023-12-04T01:41:05;12.45;;;6.20;;
35418;SDS011;21525;41.240;16.500;2023-12-04T01:43:31;15.80;;;6.40;;
35418;SDS011;21525;41.240;16.500;2023-12-04T01:45:57;10.23;;;6.15;;
35418;SDS011;21525;41.240;16.500;2023-12-04T01:48:26;10.25;;;5.85;;
35418;SDS011;21525;41.240;16.500;2023-12-04T01:50:53;11.90;;;5.68;;
35418;SDS011;21525;41.240;16.500;2023-12-04T01:53:19;8.35;;;5.07;;
35418;SDS011;21525;41.240;16.500;2023-12-04T01:55:45;8.35;;;5.30;;
35418;SDS011;21525;41.240;16.500;2023-12-04T01:58:12;14.25;;;5.38;;
35418;SDS011;21525;41.240;16.500;2023-12-04T02:00:37;10.35;;;5.43;;
35418;SDS011;21525;41.240;16.500;2023-12-04T02:03:03;11.27;;;5.70;;
35418;SDS011;21525;41.240;16.500;2023-12-04T02:05:29;7.57;;;5.07;;
35418;SDS011;21525;41.240;16.500;2023-12-04T02:07:56;8.55;;;5.03;;
35418;SDS011;21525;41.240;16.500;2023-12-04T02:10:22;9.63;;;5.45;;
35418;SDS011;21525;41.240;16.500;2023-12-04T02:12:49;11.00;;;5.10;;
35418;SDS011;21525;41.240;16.500;2023-12-04T02:15:15;9.50;;;5.28;;
35418;SDS011;21525;41.240;16.500;2023-12-04T02:17:42;8.15;;;5.35;;
35418;SDS011;21525;41.240;16.500;2023-12-04T02:20:09;14.57;;;5.97;;
35418;SDS011;21525;41.240;16.500;2023-12-04T02:22:38;8.60;;;5.35;;
35418;SDS011;21525;41.240;16.500;2023-12-04T02:25:04;8.77;;;4.97;;
35418;SDS011;21525;41.240;16.500;2023-12-04T02:27:52;9.07;;;4.95;;
35418;SDS011;21525;41.240;16.500;2023-12-04T02:30:18;8.68;;;4.50;;
35418;SDS011;21525;41.240;16.500;2023-12-04T02:32:46;9.70;;;5.20;;
35418;SDS011;21525;41.240;16.500;2023-12-04T02:35:19;8.35;;;4.45;;
35418;SDS011;21525;41.240;16.500;2023-12-04T02:37:47;9.80;;;4.90;;
35418;SDS011;21525;41.240;16.500;2023-12-04T02:40:14;6.53;;;4.00;;
35418;SDS011;21525;41.240;16.500;2023-12-04T02:42:40;8.32;;;4.78;;
35418;SDS011;21525;41.240;16.500;2023-12-04T02:45:06;7.22;;;4.15;;
35418;SDS011;21525;41.240;16.500;2023-12-04T02:47:32;9.65;;;5.65;;
35418;SDS011;21525;41.240;16.500;2023-12-04T02:49:58;8.30;;;4.70;;
35418;SDS011;21525;41.240;16.500;2023-12-04T02:52:24;8.32;;;5.20;;
35418;SDS011;21525;41.240;16.500;2023-12-04T02:54:49;10.70;;;5.00;;
35418;SDS011;21525;41.240;16.500;2023-12-04T02:57:15;8.57;;;5.13;;
35418;SDS011;21525;41.240;16.500;2023-12-04T02:59:41;8.15;;;5.07;;
35418;SDS011;21525;41.240;16.500;2023-12-04T03:02:07;11.00;;;7.13;;
35418;SDS011;21525;41.240;16.500;2023-12-04T03:04:33;8.98;;;6.53;;
35418;SDS011;21525;41.240;16.500;2023-12-04T03:07:00;9.82;;;6.53;;
35418;SDS011;21525;41.240;16.500;2023-12-04T03:09:25;11.68;;;8.25;;
35418;SDS011;21525;41.240;16.500;2023-12-04T03:11:51;14.63;;;9.63;;
35418;SDS011;21525;41.240;16.500;2023-12-04T03:14:17;10.98;;;6.97;;
35418;SDS011;21525;41.240;16.500;2023-12-04T03:16:43;10.77;;;7.03;;
35418;SDS011;21525;41.240;16.500;2023-12-04T03:19:09;8.18;;;4.75;;
35418;SDS011;21525;41.240;16.500;2023-12-04T03:21:34;11.85;;;6.22;;
35418;SDS011;21525;41.240;16.500;2023-12-04T03:24:00;10.00;;;5.28;;
35418;SDS011;21525;41.240;16.500;2023-12-04T03:26:26;15.93;;;11.00;;
35418;SDS011;21525;41.240;16.500;2023-12-04T03:28:52;11.23;;;7.45;;
35418;SDS011;21525;41.240;16.500;2023-12-04T03:31:17;8.05;;;5.80;;
35418;SDS011;21525;41.240;16.500;2023-12-04T03:33:43;10.25;;;6.13;;
35418;SDS011;21525;41.240;16.500;2023-12-04T03:36:09;10.98;;;5.57;;
35418;SDS011;21525;41.240;16.500;2023-12-04T03:38:35;11.10;;;5.75;;
35418;SDS011;21525;41.240;16.500;2023-12-04T03:41:01;7.80;;;4.82;;
35418;SDS011;21525;41.240;16.500;2023-12-04T03:43:26;8.55;;;4.68;;
35418;SDS011;21525;41.240;16.500;2023-12-04T03:45:52;11.38;;;4.80;;
35418;SDS011;21525;41.240;16.500;2023-12-04T03:48:18;8.13;;;4.38;;
35418;SDS011;21525;41.240;16.500;2023-12-04T03:50:43;8.23;;;4.53;;
35418;SDS011;21525;41.240;16.500;2023-12-04T03:53:09;9.18;;;4.60;;
35418;SDS011;21525;41.240;16.500;2023-12-04T03:55:35;8.05;;;4.57;;
35418;SDS011;21525;41.240;16.500;2023-12-04T03:58:01;9.02;;;5.35;;
35418;SDS011;21525;41.240;16.500;2023-12-04T04:00:27;9.13;;;5.07;;
35418;SDS011;21525;41.240;16.500;2023-12-04T04:02:52;7.57;;;5.00;;
35418;SDS011;21525;41.240;16.500;2023-12-04T04:05:18;8.07;;;4.38;;
35418;SDS011;21525;41.240;16.500;2023-12-04T04:07:44;8.25;;;4.88;;
35418;SDS011;21525;41.240;16.500;2023-12-04T04:10:09;9.15;;;4.97;;
35418;SDS011;21525;41.240;16.500;2023-12-04T04:12:35;8.88;;;5.10;;
35418;SDS011;21525;41.240;16.500;2023-12-04T04:15:01;11.10;;;5.03;;
35418;SDS011;21525;41.240;16.500;2023-12-04T04:17:29;11.27;;;5.07;;
35418;SDS011;21525;41.240;16.500;2023-12-04T04:19:55;9.93;;;5.10;;
35418;SDS011;21525;41.240;16.500;2023-12-04T04:22:21;7.28;;;4.35;;
35418;SDS011;21525;41.240;16.500;2023-12-04T04:24:48;8.73;;;4.10;;
35418;SDS011;21525;41.240;16.500;2023-12-04T04:27:14;8.27;;;3.67;;
35418;SDS011;21525;41.240;16.500;2023-12-04T04:29:40;7.75;;;3.65;;
35418;SDS011;21525;41.240;16.500;2023-12-04T04:32:06;10.57;;;4.65;;
35418;SDS011;21525;41.240;16.500;2023-12-04T04:34:32;9.27;;;4.43;;
35418;SDS011;21525;41.240;16.500;2023-12-04T04:36:58;9.88;;;4.32;;
35418;SDS011;21525;41.240;16.500;2023-12-04T04:39:24;9.90;;;4.75;;
35418;SDS011;21525;41.240;16.500;2023-12-04T04:41:50;7.35;;;3.80;;
35418;SDS011;21525;41.240;16.500;2023-12-04T04:44:16;9.90;;;4.85;;
35418;SDS011;21525;41.240;16.500;2023-12-04T04:46:41;10.38;;;4.40;;
35418;SDS011;21525;41.240;16.500;2023-12-04T04:49:07;7.70;;;3.70;;
35418;SDS011;21525;41.240;16.500;2023-12-04T04:51:33;9.85;;;5.18;;
35418;SDS011;21525;41.240;16.500;2023-12-04T04:54:00;8.35;;;4.60;;
35418;SDS011;21525;41.240;16.500;2023-12-04T04:56:26;10.40;;;4.55;;
35418;SDS011;21525;41.240;16.500;2023-12-04T04:58:52;10.63;;;4.40;;
35418;SDS011;21525;41.240;16.500;2023-12-04T05:01:18;7.90;;;4.30;;
35418;SDS011;21525;41.240;16.500;2023-12-04T05:03:44;9.40;;;3.90;;
35418;SDS011;21525;41.240;16.500;2023-12-04T05:06:09;8.30;;;4.68;;
35418;SDS011;21525;41.240;16.500;2023-12-04T05:08:36;12.35;;;5.68;;
35418;SDS011;21525;41.240;16.500;2023-12-04T05:11:02;9.18;;;3.92;;
35418;SDS011;21525;41.240;16.500;2023-12-04T05:13:28;8.45;;;4.55;;
35418;SDS011;21525;41.240;16.500;2023-12-04T05:15:53;7.97;;;3.47;;
35418;SDS011;21525;41.240;16.500;2023-12-04T05:18:19;9.60;;;3.67;;
35418;SDS011;21525;41.240;16.500;2023-12-04T05:20:46;10.25;;;3.95;;
35418;SDS011;21525;41.240;16.500;2023-12-04T05:23:12;7.63;;;4.05;;
35418;SDS011;21525;41.240;16.500;2023-12-04T05:25:37;6.85;;;3.90;;
35418;SDS011;21525;41.240;16.500;2023-12-04T05:28:03;8.80;;;4.20;;
35418;SDS011;21525;41.240;16.500;2023-12-04T05:30:29;8.95;;;4.32;;
35418;SDS011;21525;41.240;16.500;2023-12-04T05:32:56;5.93;;;3.55;;
35418;SDS011;21525;41.240;16.500;2023-12-04T05:35:21;10.25;;;3.97;;
35418;SDS011;21525;41.240;16.500;2023-12-04T05:37:47;9.27;;;3.80;;
35418;SDS011;21525;41.240;16.500;2023-12-04T05:40:13;7.43;;;3.78;;
35418;SDS011;21525;41.240;16.500;2023-12-04T05:42:39;6.85;;;3.67;;
35418;SDS011;21525;41.240;16.500;2023-12-04T05:45:05;10.57;;;3.58;;
35418;SDS011;21525;41.240;16.500;2023-12-04T05:47:33;7.65;;;4.28;;
35418;SDS011;21525;41.240;16.500;2023-12-04T05:50:00;10.77;;;4.40;;
35418;SDS011;21525;41.240;16.500;2023-12-04T05:52:26;8.30;;;4.30;;
35418;SDS011;21525;41.240;16.500;2023-12-04T05:54:52;11.00;;;4.57;;
35418;SDS011;21525;41.240;16.500;2023-12-04T05:57:17;12.02;;;4.78;;
35418;SDS011;21525;41.240;16.500;2023-12-04T05:59:43;8.70;;;4.28;;
35418;SDS011;21525;41.240;16.500;2023-12-04T06:02:09;10.70;;;5.30;;
35418;SDS011;21525;41.240;16.500;2023-12-04T06:04:35;7.00;;;3.97;;
35418;SDS011;21525;41.240;16.500;2023-12-04T06:07:00;12.98;;;4.45;;
35418;SDS011;21525;41.240;16.500;2023-12-04T06:09:26;10.70;;;3.90;;
35418;SDS011;21525;41.240;16.500;2023-12-04T06:11:52;10.90;;;4.05;;
35418;SDS011;21525;41.240;16.500;2023-12-04T06:14:18;11.85;;;4.45;;
35418;SDS011;21525;41.240;16.500;2023-12-04T06:16:43;9.13;;;4.63;;
35418;SDS011;21525;41.240;16.500;2023-12-04T06:19:09;10.57;;;4.90;;
35418;SDS011;21525;41.240;16.500;2023-12-04T06:21:35;9.90;;;5.28;;
35418;SDS011;21525;41.240;16.500;2023-12-04T06:24:01;13.50;;;5.38;;
35418;SDS011;21525;41.240;16.500;2023-12-04T06:26:27;13.20;;;6.03;;
35418;SDS011;21525;41.240;16.500;2023-12-04T06:28:54;12.57;;;6.30;;
35418;SDS011;21525;41.240;16.500;2023-12-04T06:31:20;12.10;;;6.95;;
35418;SDS011;21525;41.240;16.500;2023-12-04T06:33:46;15.65;;;7.18;;
35418;SDS011;21525;41.240;16.500;2023-12-04T06:36:12;14.38;;;7.10;;
35418;SDS011;21525;41.240;16.500;2023-12-04T06:38:39;14.05;;;6.72;;
35418;SDS011;21525;41.240;16.500;2023-12-04T06:41:07;14.30;;;6.18;;
35418;SDS011;21525;41.240;16.500;2023-12-04T06:43:33;12.73;;;6.22;;
35418;SDS011;21525;41.240;16.500;2023-12-04T06:45:59;11.68;;;6.22;;
35418;SDS011;21525;41.240;16.500;2023-12-04T06:48:25;14.70;;;7.47;;
35418;SDS011;21525;41.240;16.500;2023-12-04T06:50:51;13.40;;;8.07;;
35418;SDS011;21525;41.240;16.500;2023-12-04T06:53:17;16.90;;;8.70;;
35418;SDS011;21525;41.240;16.500;2023-12-04T06:55:43;12.15;;;7.35;;
35418;SDS011;21525;41.240;16.500;2023-12-04T06:58:09;16.75;;;7.15;;
35418;SDS011;21525;41.240;16.500;2023-12-04T07:00:35;21.25;;;10.82;;
35418;SDS011;21525;41.240;16.500;2023-12-04T07:03:01;18.70;;;11.25;;
35418;SDS011;21525;41.240;16.500;2023-12-04T07:05:26;19.15;;;10.93;;
35418;SDS011;21525;41.240;16.500;2023-12-04T07:07:52;20.10;;;11.50;;
35418;SDS011;21525;41.240;16.500;2023-12-04T07:10:18;19.45;;;11.18;;
35418;SDS011;21525;41.240;16.500;2023-12-04T07:12:44;18.10;;;10.52;;
35418;SDS011;21525;41.240;16.500;2023-12-04T07:15:10;21.15;;;12.45;;
35418;SDS011;21525;41.240;16.500;2023-12-04T07:17:37;17.02;;;9.82;;
35418;SDS011;21525;41.240;16.500;2023-12-04T07:20:03;14.50;;;9.05;;
35418;SDS011;21525;41.240;16.500;2023-12-04T07:22:33;13.57;;;8.18;;
35418;SDS011;21525;41.240;16.500;2023-12-04T07:24:58;13.13;;;7.47;;
35418;SDS011;21525;41.240;16.500;2023-12-04T07:27:24;18.02;;;7.93;;
35418;SDS011;21525;41.240;16.500;2023-12-04T07:29:50;16.15;;;7.75;;
35418;SDS011;21525;41.240;16.500;2023-12-04T07:32:16;10.07;;;6.45;;
35418;SDS011;21525;41.240;16.500;2023-12-04T07:34:43;11.25;;;6.57;;
35418;SDS011;21525;41.240;16.500;2023-12-04T07:37:09;10.15;;;5.32;;
35418;SDS011;21525;41.240;16.500;2023-12-04T07:39:35;10.45;;;5.30;;
35418;SDS011;21525;41.240;16.500;2023-12-04T07:42:01;10.30;;;4.20;;
35418;SDS011;21525;41.240;16.500;2023-12-04T07:44:27;7.78;;;4.75;;
35418;SDS011;21525;41.240;16.500;2023-12-04T07:46:53;9.00;;;4.32;;
35418;SDS011;21525;41.240;16.500;2023-12-04T07:49:18;9.52;;;4.93;;
35418;SDS011;21525;41.240;16.500;2023-12-04T07:51:44;11.68;;;4.95;;
35418;SDS011;21525;41.240;16.500;2023-12-04T07:54:10;8.30;;;4.63;;
35418;SDS011;21525;41.240;16.500;2023-12-04T07:56:36;7.50;;;4.50;;
35418;SDS011;21525;41.240;16.500;2023-12-04T07:59:01;12.18;;;5.78;;
35418;SDS011;21525;41.240;16.500;2023-12-04T08:01:27;9.20;;;4.72;;
35418;SDS011;21525;41.240;16.500;2023-12-04T08:03:53;11.38;;;4.35;;
35418;SDS011;21525;41.240;16.500;2023-12-04T08:06:18;6.72;;;3.53;;
35418;SDS011;21525;41.240;16.500;2023-12-04T08:08:44;7.47;;;4.20;;
35418;SDS011;21525;41.240;16.500;2023-12-04T08:11:10;11.48;;;4.60;;
35418;SDS011;21525;41.240;16.500;2023-12-04T08:13:39;9.15;;;4.10;;
35418;SDS011;21525;41.240;16.500;2023-12-04T08:16:12;8.10;;;4.32;;
35418;SDS011;21525;41.240;16.500;2023-12-04T08:18:39;8.63;;;3.88;;
35418;SDS011;21525;41.240;16.500;2023-12-04T08:21:05;10.57;;;4.72;;
35418;SDS011;21525;41.240;16.500;2023-12-04T08:23:31;8.02;;;4.40;;
35418;SDS011;21525;41.240;16.500;2023-12-04T08:25:57;9.77;;;4.70;;
35418;SDS011;21525;41.240;16.500;2023-12-04T08:28:23;12.73;;;5.47;;
35418;SDS011;21525;41.240;16.500;2023-12-04T08:30:48;12.23;;;4.70;;
35418;SDS011;21525;41.240;16.500;2023-12-04T08:33:14;9.77;;;5.35;;
35418;SDS011;21525;41.240;16.500;2023-12-04T08:35:41;9.00;;;4.45;;
35418;SDS011;21525;41.240;16.500;2023-12-04T08:38:06;11.98;;;4.20;;
35418;SDS011;21525;41.240;16.500;2023-12-04T08:40:32;15.00;;;4.97;;
35418;SDS011;21525;41.240;16.500;2023-12-04T08:42:58;13.60;;;4.18;;
35418;SDS011;21525;41.240;16.500;2023-12-04T08:45:24;7.63;;;3.75;;
35418;SDS011;21525;41.240;16.500;2023-12-04T08:47:49;9.57;;;4.00;;
35418;SDS011;21525;41.240;16.500;2023-12-04T08:50:15;12.95;;;4.25;;
35418;SDS011;21525;41.240;16.500;2023-12-04T08:52:41;11.98;;;4.82;;
35418;SDS011;21525;41.240;16.500;2023-12-04T08:55:07;16.42;;;4.57;;
35418;SDS011;21525;41.240;16.500;2023-12-04T08:57:34;12.20;;;4.57;;
35418;SDS011;21525;41.240;16.500;2023-12-04T08:59:59;10.45;;;5.28;;
35418;SDS011;21525;41.240;16.500;2023-12-04T09:02:25;11.68;;;5.75;;
35418;SDS011;21525;41.240;16.500;2023-12-04T09:04:51;12.95;;;5.13;;
35418;SDS011;21525;41.240;16.500;2023-12-04T09:07:16;9.82;;;4.22;;
35418;SDS011;21525;41.240;16.500;2023-12-04T09:09:42;10.40;;;4.30;;
35418;SDS011;21525;41.240;16.500;2023-12-04T09:12:09;11.10;;;6.30;;
35418;SDS011;21525;41.240;16.500;2023-12-04T09:14:35;9.60;;;4.10;;
35418;SDS011;21525;41.240;16.500;2023-12-04T09:17:01;10.23;;;3.90;;
35418;SDS011;21525;41.240;16.500;2023-12-04T09:19:27;11.35;;;5.85;;
35418;SDS011;21525;41.240;16.500;2023-12-04T09:21:53;8.82;;;4.05;;
35418;SDS011;21525;41.240;16.500;2023-12-04T09:24:18;8.13;;;4.30;;
35418;SDS011;21525;41.240;16.500;2023-12-04T09:26:44;8.38;;;4.38;;
35418;SDS011;21525;41.240;16.500;2023-12-04T09:29:13;10.82;;;5.18;;
35418;SDS011;21525;41.240;16.500;2023-12-04T09:31:39;10.25;;;5.28;;
35418;SDS011;21525;41.240;16.500;2023-12-04T09:34:05;7.65;;;4.35;;
35418;SDS011;21525;41.240;16.500;2023-12-04T09:36:31;10.60;;;5.00;;
35418;SDS011;21525;41.240;16.500;2023-12-04T09:38:56;11.88;;;4.38;;
35418;SDS011;21525;41.240;16.500;2023-12-04T09:41:22;5.35;;;3.38;;
35418;SDS011;21525;41.240;16.500;2023-12-04T09:43:48;9.40;;;5.43;;
35418;SDS011;21525;41.240;16.500;2023-12-04T09:46:14;8.98;;;4.00;;
35418;SDS011;21525;41.240;16.500;2023-12-04T09:48:43;8.68;;;3.60;;
35418;SDS011;21525;41.240;16.500;2023-12-04T09:51:09;9.90;;;3.95;;
35418;SDS011;21525;41.240;16.500;2023-12-04T09:53:36;8.68;;;4.15;;
35418;SDS011;21525;41.240;16.500;2023-12-04T09:56:06;10.73;;;4.95;;
35418;SDS011;21525;41.240;16.500;2023-12-04T09:58:34;12.48;;;5.97;;
35418;SDS011;21525;41.240;16.500;2023-12-04T10:01:05;9.23;;;3.97;;
35418;SDS011;21525;41.240;16.500;2023-12-04T10:03:32;9.88;;;4.45;;
35418;SDS011;21525;41.240;16.500;2023-12-04T10:05:58;7.55;;;4.20;;
35418;SDS011;21525;41.240;16.500;2023-12-04T10:08:24;10.18;;;3.42;;
35418;SDS011;21525;41.240;16.500;2023-12-04T10:10:50;6.57;;;2.80;;
35418;SDS011;21525;41.240;16.500;2023-12-04T10:13:16;5.72;;;3.08;;
35418;SDS011;21525;41.240;16.500;2023-12-04T10:15:48;11.82;;;5.10;;
35418;SDS011;21525;41.240;16.500;2023-12-04T10:20:52;8.18;;;4.28;;
35418;SDS011;21525;41.240;16.500;2023-12-04T10:23:19;8.63;;;4.10;;
35418;SDS011;21525;41.240;16.500;2023-12-04T10:25:46;12.38;;;5.22;;
35418;SDS011;21525;41.240;16.500;2023-12-04T10:28:15;11.13;;;3.55;;
35418;SDS011;21525;41.240;16.500;2023-12-04T10:30:41;11.80;;;4.07;;
35418;SDS011;21525;41.240;16.500;2023-12-04T10:33:08;9.02;;;4.65;;
35418;SDS011;21525;41.240;16.500;2023-12-04T10:35:37;5.05;;;3.58;;
35418;SDS011;21525;41.240;16.500;2023-12-04T10:38:04;7.18;;;3.35;;
35418;SDS011;21525;41.240;16.500;2023-12-04T10:40:31;11.15;;;3.90;;
35418;SDS011;21525;41.240;16.500;2023-12-04T10:45:48;10.13;;;4.15;;
35418;SDS011;21525;41.240;16.500;2023-12-04T10:48:15;7.13;;;3.80;;
35418;SDS011;21525;41.240;16.500;2023-12-04T10:50:43;8.02;;;3.40;;
35418;SDS011;21525;41.240;16.500;2023-12-04T10:53:11;7.38;;;3.53;;
35418;SDS011;21525;41.240;16.500;2023-12-04T10:55:38;10.50;;;4.37;;
35418;SDS011;21525;41.240;16.500;2023-12-04T10:58:12;5.47;;;3.10;;
35418;SDS011;21525;41.240;16.500;2023-12-04T11:00:46;4.93;;;3.60;;
35418;SDS011;21525;41.240;16.500;2023-12-04T11:05:55;8.30;;;3.47;;
35418;SDS011;21525;41.240;16.500;2023-12-04T11:08:21;14.18;;;6.40;;
35418;SDS011;21525;41.240;16.500;2023-12-04T11:10:48;11.50;;;5.63;;
35418;SDS011;21525;41.240;16.500;2023-12-04T11:13:22;12.88;;;5.68;;
35418;SDS011;21525;41.240;16.500;2023-12-04T11:15:52;8.82;;;4.28;;
35418;SDS011;21525;41.240;16.500;2023-12-04T11:18:23;8.43;;;3.17;;
35418;SDS011;21525;41.240;16.500;2023-12-04T11:20:56;9.05;;;3.47;;
35418;SDS011;21525;41.240;16.500;2023-12-04T11:23:25;9.57;;;3.45;;
35418;SDS011;21525;41.240;16.500;2023-12-04T11:25:50;7.63;;;3.92;;
35418;SDS011;21525;41.240;16.500;2023-12-04T11:28:18;8.13;;;3.90;;
35418;SDS011;21525;41.240;16.500;2023-12-04T11:30:45;7.75;;;3.20;;
35418;SDS011;21525;41.240;16.500;2023-12-04T11:33:11;7.28;;;3.55;;
35418;SDS011;21525;41.240;16.500;2023-12-04T11:35:37;8.68;;;4.10;;
35418;SDS011;21525;41.240;16.500;2023-12-04T11:38:07;6.43;;;4.20;;
35418;SDS011;21525;41.240;16.500;2023-12-04T11:40:34;10.68;;;3.72;;
35418;SDS011;21525;41.240;16.500;2023-12-04T11:43:13;8.07;;;3.47;;
35418;SDS011;21525;41.240;16.500;2023-12-04T11:45:47;5.60;;;3.15;;
35418;SDS011;21525;41.240;16.500;2023-12-04T11:48:15;5.43;;;3.42;;
35418;SDS011;21525;41.240;16.500;2023-12-04T11:50:43;9.13;;;4.03;;
35418;SDS011;21525;41.240;16.500;2023-12-04T11:55:36;7.15;;;3.50;;
35418;SDS011;21525;41.240;16.500;2023-12-04T11:58:08;5.80;;;3.50;;
35418;SDS011;21525;41.240;16.500;2023-12-04T12:00:35;9.32;;;3.63;;
35418;SDS011;21525;41.240;16.500;2023-12-04T12:03:02;9.35;;;4.57;;
35418;SDS011;21525;41.240;16.500;2023-12-04T12:05:31;6.38;;;3.17;;
35418;SDS011;21525;41.240;16.500;2023-12-04T12:08:02;7.10;;;3.72;;
35418;SDS011;21525;41.240;16.500;2023-12-04T12:10:29;10.98;;;3.85;;
35418;SDS011;21525;41.240;16.500;2023-12-04T12:12:55;6.93;;;3.42;;
35418;SDS011;21525;41.240;16.500;2023-12-04T12:15:22;9.70;;;3.53;;
35418;SDS011;21525;41.240;16.500;2023-12-04T12:17:49;9.10;;;4.35;;
35418;SDS011;21525;41.240;16.500;2023-12-04T12:20:15;6.70;;;3.45;;
35418;SDS011;21525;41.240;16.500;2023-12-04T12:22:41;6.57;;;3.55;;
35418;SDS011;21525;41.240;16.500;2023-12-04T12:25:12;6.43;;;2.80;;
35418;SDS011;21525;41.240;16.500;2023-12-04T12:27:38;7.78;;;3.22;;
35418;SDS011;21525;41.240;16.500;2023-12-04T12:30:04;6.07;;;3.17;;
35418;SDS011;21525;41.240;16.500;2023-12-04T12:32:31;7.38;;;2.83;;
35418;SDS011;21525;41.240;16.500;2023-12-04T12:34:58;5.38;;;2.80;;
35418;SDS011;21525;41.240;16.500;2023-12-04T12:37:24;8.80;;;3.38;;
35418;SDS011;21525;41.240;16.500;2023-12-04T12:39:50;5.13;;;2.60;;
35418;SDS011;21525;41.240;16.500;2023-12-04T12:42:29;7.55;;;3.15;;
35418;SDS011;21525;41.240;16.500;2023-12-04T12:44:55;6.93;;;2.80;;
35418;SDS011;21525;41.240;16.500;2023-12-04T12:47:25;5.93;;;2.38;;
35418;SDS011;21525;41.240;16.500;2023-12-04T12:49:51;5.43;;;2.95;;
35418;SDS011;21525;41.240;16.500;2023-12-04T12:52:17;4.72;;;2.58;;
35418;SDS011;21525;41.240;16.500;2023-12-04T12:54:44;7.65;;;3.10;;
35418;SDS011;21525;41.240;16.500;2023-12-04T12:57:11;6.30;;;2.55;;
35418;SDS011;21525;41.240;16.500;2023-12-04T12:59:37;10.65;;;3.10;;
35418;SDS011;21525;41.240;16.500;2023-12-04T13:02:04;7.22;;;2.90;;
35418;SDS011;21525;41.240;16.500;2023-12-04T13:04:41;7.20;;;3.15;;
35418;SDS011;21525;41.240;16.500;2023-12-04T13:07:07;9.70;;;2.97;;
35418;SDS011;21525;41.240;16.500;2023-12-04T13:09:34;8.75;;;2.80;;
35418;SDS011;21525;41.240;16.500;2023-12-04T13:12:04;5.30;;;2.90;;
35418;SDS011;21525;41.240;16.500;2023-12-04T13:14:30;39.08;;;6.53;;
35418;SDS011;21525;41.240;16.500;2023-12-04T13:16:58;15.52;;;3.83;;
35418;SDS011;21525;41.240;16.500;2023-12-04T13:19:24;12.95;;;3.80;;
35418;SDS011;21525;41.240;16.500;2023-12-04T13:21:49;7.60;;;2.83;;
35418;SDS011;21525;41.240;16.500;2023-12-04T13:24:16;4.57;;;2.60;;
35418;SDS011;21525;41.240;16.500;2023-12-04T13:26:43;8.32;;;2.60;;
35418;SDS011;21525;41.240;16.500;2023-12-04T13:29:12;5.60;;;2.65;;
35418;SDS011;21525;41.240;16.500;2023-12-04T13:31:41;5.53;;;2.70;;
35418;SDS011;21525;41.240;16.500;2023-12-04T13:34:06;4.72;;;2.50;;
35418;SDS011;21525;41.240;16.500;2023-12-04T13:36:33;3.88;;;2.60;;
35418;SDS011;21525;41.240;16.500;2023-12-04T13:38:59;6.97;;;3.53;;
35418;SDS011;21525;41.240;16.500;2023-12-04T13:41:25;5.53;;;2.50;;
35418;SDS011;21525;41.240;16.500;2023-12-04T13:44:09;3.90;;;2.47;;
35418;SDS011;21525;41.240;16.500;2023-12-04T13:46:37;6.03;;;3.03;;
35418;SDS011;21525;41.240;16.500;2023-12-04T13:49:03;7.72;;;2.75;;
35418;SDS011;21525;41.240;16.500;2023-12-04T13:51:28;7.00;;;3.45;;
35418;SDS011;21525;41.240;16.500;2023-12-04T13:53:54;9.45;;;3.85;;
35418;SDS011;21525;41.240;16.500;2023-12-04T13:56:34;7.38;;;3.00;;
35418;SDS011;21525;41.240;16.500;2023-12-04T13:59:32;9.65;;;2.95;;
35418;SDS011;21525;41.240;16.500;2023-12-04T14:01:59;5.95;;;2.50;;
35418;SDS011;21525;41.240;16.500;2023-12-04T14:04:28;7.05;;;3.00;;
35418;SDS011;21525;41.240;16.500;2023-12-04T14:06:53;7.93;;;2.88;;
35418;SDS011;21525;41.240;16.500;2023-12-04T14:09:19;6.35;;;3.05;;
35418;SDS011;21525;41.240;16.500;2023-12-04T14:11:45;7.43;;;3.15;;
35418;SDS011;21525;41.240;16.500;2023-12-04T14:14:11;4.20;;;2.83;;
35418;SDS011;21525;41.240;16.500;2023-12-04T14:16:38;5.00;;;3.03;;
35418;SDS011;21525;41.240;16.500;2023-12-04T14:19:04;5.60;;;3.15;;
35418;SDS011;21525;41.240;16.500;2023-12-04T14:21:30;8.10;;;2.85;;
35418;SDS011;21525;41.240;16.500;2023-12-04T14:23:56;10.27;;;3.20;;
35418;SDS011;21525;41.240;16.500;2023-12-04T14:26:21;5.20;;;3.35;;
35418;SDS011;21525;41.240;16.500;2023-12-04T14:28:48;5.10;;;2.88;;
35418;SDS011;21525;41.240;16.500;2023-12-04T14:31:13;10.35;;;4.40;;
35418;SDS011;21525;41.240;16.500;2023-12-04T14:33:39;5.20;;;2.83;;
35418;SDS011;21525;41.240;16.500;2023-12-04T14:36:05;5.93;;;2.78;;